Time;durP1;ratioP1;P1;durP2;ratioP2;P2;SDS_P1;SDS_P2;PMS_P1;PMS_P2;Temp;Humidity;BMP_temperature;BMP_pressure;BME280_temperature;BME280_humidity;BME280_pressure;Samples;Min_cycle;Max_cycle;Signal;HPM_P1;HPM_P2
2022/05/24 00:00:28;;;;;;;2.92;1.73;;;;;;;20.50;35.98;99973.66;5095586;28;20024;-47
2022/05/24 00:02:54;;;;;;;2.72;1.60;;;;;;;20.49;35.91;99986.22;5093317;28;20073;-47
2022/05/24 00:05:22;;;;;;;3.03;1.70;;;;;;;20.48;36.29;99975.72;5092333;28;20118;-47
2022/05/24 00:07:47;;;;;;;2.20;1.60;;;;;;;20.49;36.38;99980.03;5090555;28;20031;-46
2022/05/24 00:10:16;;;;;;;2.58;1.50;;;;;;;20.48;36.08;99971.19;5077714;28;20044;-45
2022/05/24 00:12:42;;;;;;;2.42;1.70;;;;;;;20.46;36.17;99970.50;5076484;28;20425;-44
2022/05/24 00:15:20;;;;;;;4.25;1.67;;;;;;;20.45;36.04;99968.84;5082948;28;20515;-45
2022/05/24 00:17:49;;;;;;;4.03;1.65;;;;;;;20.44;35.98;99975.19;5085887;28;20551;-45
2022/05/24 00:20:15;;;;;;;4.60;1.93;;;;;;;20.45;35.78;99976.03;5088058;28;20036;-47
2022/05/24 00:22:40;;;;;;;3.65;1.65;;;;;;;20.46;35.70;99977.72;5090647;28;20419;-47
2022/05/24 00:25:07;;;;;;;2.17;1.60;;;;;;;20.46;35.69;99975.03;5083572;28;20081;-46
2022/05/24 00:27:32;;;;;;;4.68;1.70;;;;;;;20.46;35.83;99980.38;5083760;28;20027;-46
2022/05/24 00:29:58;;;;;;;3.70;1.67;;;;;;;20.45;35.73;99978.72;5088883;28;20028;-44
2022/05/24 00:32:23;;;;;;;4.20;2.00;;;;;;;20.44;36.55;99975.19;5094667;28;20400;-47
2022/05/24 00:34:49;;;;;;;3.05;1.60;;;;;;;20.44;38.09;99969.03;5089056;28;20499;-45
2022/05/24 00:37:19;;;;;;;4.63;1.98;;;;;;;20.41;38.91;99968.38;5086302;28;20063;-44
2022/05/24 00:39:46;;;;;;;3.35;1.80;;;;;;;20.37;39.38;99963.53;5086388;28;20024;-45
2022/05/24 00:42:17;;;;;;;4.10;1.75;;;;;;;20.33;39.69;99949.72;5084938;28;20488;-44
2022/05/24 00:44:49;;;;;;;3.47;1.70;;;;;;;20.27;40.37;99945.03;5085289;28;20110;-46
2022/05/24 00:47:30;;;;;;;3.42;1.90;;;;;;;20.24;40.65;99948.03;5087355;28;20032;-45
2022/05/24 00:50:01;;;;;;;3.10;1.80;;;;;;;20.20;40.59;99941.38;5081148;28;20080;-46
2022/05/24 00:52:41;;;;;;;4.43;1.83;;;;;;;20.16;40.69;99940.06;5084792;28;20027;-43
2022/05/24 00:55:10;;;;;;;3.78;1.58;;;;;;;20.13;40.97;99948.41;5094542;28;20108;-48
2022/05/24 00:57:44;;;;;;;3.10;1.70;;;;;;;20.10;41.12;99946.94;5084601;28;20112;-46
2022/05/24 01:00:21;;;;;;;2.88;1.70;;;;;;;20.06;40.89;99946.41;5087473;28;20471;-45
2022/05/24 01:02:48;;;;;;;3.30;1.80;;;;;;;20.06;41.01;99946.41;5082243;28;20082;-47
2022/05/24 01:05:31;;;;;;;3.50;1.95;;;;;;;20.05;40.97;99939.41;5083817;28;20157;-45
2022/05/24 01:07:58;;;;;;;3.88;2.00;;;;;;;20.02;41.05;99933.59;5087317;28;20542;-48
2022/05/24 01:10:34;;;;;;;2.25;1.65;;;;;;;20.03;41.42;99940.59;5084842;28;20036;-47
2022/05/24 01:13:19;;;;;;;4.72;2.00;;;;;;;20.02;40.97;99938.91;5083204;28;20077;-48
2022/05/24 01:15:45;;;;;;;4.47;2.13;;;;;;;20.01;40.97;99930.09;5080453;28;20024;-44
2022/05/24 01:18:13;;;;;;;2.80;1.90;;;;;;;20.01;40.86;99931.91;5088653;28;20039;-46
2022/05/24 01:20:40;;;;;;;3.58;1.90;;;;;;;19.98;40.88;99919.75;5077652;28;20036;-45
2022/05/24 01:23:33;;;;;;;4.30;1.90;;;;;;;19.96;40.90;99913.75;5083124;28;20024;-48
2022/05/24 01:26:09;;;;;;;2.75;1.88;;;;;;;19.95;40.79;99912.06;5088194;28;20028;-46
2022/05/24 01:28:50;;;;;;;5.80;2.15;;;;;;;19.93;40.82;99914.06;5084767;28;20032;-48
2022/05/24 01:31:17;;;;;;;4.07;2.20;;;;;;;19.92;40.83;99912.41;5080646;28;20111;-48
2022/05/24 01:36:29;;;;;;;3.33;1.90;;;;;;;19.89;40.80;99913.59;5086980;28;20654;-47
2022/05/24 01:39:00;;;;;;;5.10;2.05;;;;;;;19.89;40.91;99923.44;5083677;28;20032;-45
2022/05/24 01:41:48;;;;;;;3.65;1.80;;;;;;;19.88;40.70;99921.78;5084714;28;20042;-47
2022/05/24 01:44:26;;;;;;;2.38;1.92;;;;;;;19.89;40.83;99926.13;5084481;28;21392;-46
2022/05/24 01:46:52;;;;;;;3.88;2.10;;;;;;;19.88;40.64;99924.44;5081776;28;20056;-41
2022/05/24 01:49:36;;;;;;;5.35;2.13;;;;;;;19.86;40.80;99923.75;5080544;28;20575;-47
2022/05/24 01:52:12;;;;;;;5.50;1.70;;;;;;;19.84;40.60;99923.91;5081485;28;20023;-46
2022/05/24 01:54:45;;;;;;;5.75;2.00;;;;;;;19.80;40.53;99926.09;5085270;28;20373;-45
2022/05/24 01:57:17;;;;;;;2.65;1.75;;;;;;;19.82;40.88;99927.75;5084308;28;20105;-48
2022/05/24 01:59:46;;;;;;;4.18;1.77;;;;;;;19.80;40.76;99922.59;5076959;28;20059;-47
2022/05/24 02:02:12;;;;;;;3.33;2.00;;;;;;;19.80;40.74;99928.75;5079388;28;20125;-45
2022/05/24 02:04:38;;;;;;;3.75;2.20;;;;;;;19.79;40.54;99919.06;5076644;28;20032;-44
2022/05/24 02:07:07;;;;;;;3.63;1.98;;;;;;;19.80;40.90;99923.41;5073505;28;20404;-53
2022/05/24 02:09:38;;;;;;;6.60;2.50;;;;;;;19.79;40.80;99919.06;5083659;28;20031;-42
2022/05/24 02:12:12;;;;;;;3.65;2.45;;;;;;;19.79;40.75;99912.91;5082878;28;20039;-45
2022/05/24 02:14:44;;;;;;;5.95;2.20;;;;;;;19.80;40.57;99914.59;5076857;28;20928;-48
2022/05/24 02:17:27;;;;;;;3.22;1.90;;;;;;;19.79;40.64;99913.75;5080550;28;20024;-43
2022/05/24 02:19:54;;;;;;;4.38;2.20;;;;;;;19.79;40.66;99913.75;5081044;28;20744;-45
2022/05/24 02:22:25;;;;;;;4.97;2.00;;;;;;;19.80;40.39;99912.75;5082111;28;20062;-42
2022/05/24 02:24:55;;;;;;;4.10;2.20;;;;;;;19.80;40.46;99910.06;5086073;28;20024;-45
2022/05/24 02:27:20;;;;;;;2.40;1.90;;;;;;;19.82;40.32;99912.56;5086548;28;20034;-45
2022/05/24 02:29:46;;;;;;;3.15;1.85;;;;;;;19.82;40.41;99915.22;5086748;28;20532;-42
2022/05/24 02:32:11;;;;;;;3.70;2.40;;;;;;;19.83;40.42;99906.22;5097023;28;20039;-46
2022/05/24 02:34:37;;;;;;;12.07;7.45;;;;;;;19.84;40.37;99905.22;5087309;28;20033;-46
2022/05/24 02:37:04;;;;;;;6.75;3.10;;;;;;;19.84;40.57;99915.91;5085393;28;20492;-44
2022/05/24 02:39:29;;;;;;;3.83;2.10;;;;;;;19.87;40.16;99915.59;5080102;28;20123;-43
2022/05/24 02:41:55;;;;;;;4.25;2.20;;;;;;;19.86;40.38;99903.22;5087995;28;20521;-47
2022/05/24 02:44:20;;;;;;;3.90;1.90;;;;;;;19.85;40.16;99906.06;5086829;28;20039;-42
2022/05/24 02:46:47;;;;;;;2.47;2.00;;;;;;;19.85;40.37;99892.72;5088666;28;20093;-42
2022/05/24 02:49:13;;;;;;;4.80;2.28;;;;;;;19.84;40.22;99905.22;5079125;28;20024;-43
2022/05/24 02:51:40;;;;;;;2.95;2.20;;;;;;;19.84;40.21;99904.41;5084831;28;20028;-42
2022/05/24 02:54:07;;;;;;;3.00;1.95;;;;;;;19.83;40.48;99902.72;5084654;28;20039;-46
2022/05/24 02:56:32;;;;;;;5.53;2.10;;;;;;;19.82;40.83;99903.72;5083384;28;20025;-43
2022/05/24 02:58:58;;;;;;;4.13;2.20;;;;;;;19.80;41.41;99904.72;5091585;28;20087;-44
2022/05/24 03:01:26;;;;;;;3.83;2.08;;;;;;;19.80;42.00;99909.25;5088954;28;20118;-46
2022/05/24 03:03:53;;;;;;;2.60;2.28;;;;;;;19.78;41.88;99909.41;5087522;28;20036;-47
2022/05/24 03:06:20;;;;;;;3.33;2.35;;;;;;;19.78;42.27;99916.59;5093721;28;20095;-46
2022/05/24 03:14:14;;;;;;;4.70;2.97;;;;;;;19.75;42.13;99909.72;5082433;28;20043;-47
2022/05/24 03:14:18;;;;;;;7.18;3.78;;;;;;;19.74;42.55;99909.91;5084960;28;20098;-45
2022/05/24 03:16:49;;;;;;;6.03;3.25;;;;;;;19.73;42.29;99909.09;5080407;28;20395;-47
2022/05/24 03:19:15;;;;;;;5.07;3.28;;;;;;;19.72;42.28;99911.91;5080431;28;20119;-45
2022/05/24 03:21:41;;;;;;;5.05;3.40;;;;;;;19.71;42.16;99905.75;5090643;28;20036;-44
2022/05/24 03:24:08;;;;;;;5.65;3.75;;;;;;;19.71;42.21;99911.09;5090683;28;20035;-48
2022/05/24 03:26:34;;;;;;;6.00;3.40;;;;;;;19.71;41.98;99911.09;5084937;28;20436;-47
2022/05/24 03:29:00;;;;;;;3.83;2.30;;;;;;;19.70;42.02;99922.75;5078927;28;20036;-47
2022/05/24 03:31:25;;;;;;;3.33;2.30;;;;;;;19.69;41.90;99915.75;5081302;28;20034;-49
2022/05/24 03:33:51;;;;;;;3.70;2.40;;;;;;;19.69;42.78;99915.75;5079480;28;20027;-45
2022/05/24 03:36:19;;;;;;;3.10;2.22;;;;;;;19.68;43.28;99914.09;5080213;28;20119;-47
2022/05/24 03:38:44;;;;;;;3.88;2.58;;;;;;;19.66;43.69;99918.75;5078363;28;20039;-44
2022/05/24 03:41:10;;;;;;;6.10;2.33;;;;;;;19.65;44.01;99914.41;5081178;28;20052;-51
2022/05/24 03:43:35;;;;;;;6.28;2.40;;;;;;;19.63;44.12;99916.41;5080186;28;20548;-45
2022/05/24 03:46:04;;;;;;;5.60;2.45;;;;;;;19.63;44.21;99908.41;5082463;28;20028;-49
2022/05/24 03:48:31;;;;;;;6.25;3.38;;;;;;;19.61;44.32;99915.75;5077192;28;20059;-50
2022/05/24 03:50:56;;;;;;;5.45;3.90;;;;;;;19.59;44.27;99910.59;5086495;28;20028;-46
2022/05/24 03:53:23;;;;;;;5.18;2.97;;;;;;;19.59;44.31;99915.09;5084054;28;20153;-46
2022/05/24 03:55:48;;;;;;;3.35;2.60;;;;;;;19.56;44.30;99908.25;5079814;28;20062;-47
2022/05/24 03:58:14;;;;;;;4.53;2.80;;;;;;;19.55;44.01;99911.09;5081611;28;20124;-45
2022/05/24 04:00:42;;;;;;;4.55;3.10;;;;;;;19.53;44.10;99913.09;5088237;28;20773;-46
2022/05/24 04:03:08;;;;;;;7.03;2.95;;;;;;;19.50;44.10;99907.09;5076753;28;20059;-44
2022/05/24 04:05:34;;;;;;;5.00;3.25;;;;;;;19.51;44.06;99910.63;5079536;28;20028;-46
2022/05/24 04:08:01;;;;;;;5.80;2.83;;;;;;;19.50;44.27;99903.59;5080703;28;21832;-45
2022/05/24 04:10:27;;;;;;;8.10;3.30;;;;;;;19.49;44.48;99908.09;5084894;28;20028;-47
2022/05/24 04:12:53;;;;;;;9.30;3.67;;;;;;;19.48;44.51;99906.44;5081885;28;20020;-47
2022/05/24 04:15:19;;;;;;;7.50;3.75;;;;;;;19.48;44.29;99906.44;5086139;28;20081;-45
2022/05/24 04:17:46;;;;;;;5.68;2.88;;;;;;;19.47;44.62;99914.59;5087549;28;20110;-45
2022/05/24 04:20:13;;;;;;;8.70;3.40;;;;;;;19.47;44.65;99915.44;5088359;28;20035;-46
2022/05/24 04:22:39;;;;;;;4.43;3.20;;;;;;;19.47;44.61;99920.75;5082878;28;20052;-46
2022/05/24 04:25:06;;;;;;;6.93;3.60;;;;;;;19.46;44.77;99921.75;5082972;28;20055;-48
2022/05/24 04:27:32;;;;;;;4.07;2.50;;;;;;;19.46;44.58;99921.75;5083436;28;20036;-46
2022/05/24 04:29:58;;;;;;;3.80;3.00;;;;;;;19.46;44.81;99916.44;5086852;28;20028;-46
2022/05/24 04:32:23;;;;;;;8.73;3.70;;;;;;;19.46;44.92;99919.09;5078521;28;20031;-46
2022/05/24 04:34:49;;;;;;;5.45;2.85;;;;;;;19.47;45.17;99925.28;5086568;28;20057;-46
2022/05/24 04:37:14;;;;;;;3.95;2.90;;;;;;;19.47;45.15;99923.44;5073641;28;20116;-46
2022/05/24 04:39:40;;;;;;;3.70;2.75;;;;;;;19.48;45.43;99922.44;5082952;28;20021;-47
2022/05/24 04:42:24;;;;;;;6.15;3.20;;;;;;;19.48;45.61;99929.63;5077357;28;20123;-47
2022/05/24 04:44:53;;;;;;;5.40;3.00;;;;;;;19.48;45.80;99925.09;5086583;28;20081;-47
2022/05/24 04:47:20;;;;;;;6.38;3.05;;;;;;;19.48;45.98;99930.44;5080360;28;20024;-46
2022/05/24 04:49:53;;;;;;;4.63;2.58;;;;;;;19.47;46.31;99928.75;5083918;28;20024;-45
2022/05/24 04:52:20;;;;;;;5.45;2.72;;;;;;;19.47;46.49;99933.28;5079640;28;20032;-47
2022/05/24 04:54:46;;;;;;;5.18;3.33;;;;;;;19.47;46.81;99928.75;5078868;28;20085;-48
2022/05/24 04:57:13;;;;;;;9.10;3.88;;;;;;;19.46;47.38;99927.09;5081118;28;20040;-44
2022/05/24 04:59:38;;;;;;;10.65;3.55;;;;;;;19.45;47.38;99928.09;5081248;28;20388;-45
2022/05/24 05:02:05;;;;;;;5.57;2.60;;;;;;;19.44;47.72;99926.44;5072164;28;20538;-46
2022/05/24 05:04:31;;;;;;;6.00;3.28;;;;;;;19.42;48.24;99936.47;5082474;28;20430;-50
2022/05/24 05:06:56;;;;;;;6.93;4.88;;;;;;;19.38;48.44;99929.78;5092658;28;20092;-45
2022/05/24 05:09:22;;;;;;;9.35;4.47;;;;;;;19.36;48.94;99933.63;5091461;28;20102;-45
2022/05/24 05:11:48;;;;;;;5.10;3.72;;;;;;;19.34;49.16;99941.78;5084168;28;20042;-47
2022/05/24 05:14:14;;;;;;;7.78;3.17;;;;;;;19.30;49.34;99932.41;5087484;28;20070;-47
2022/05/24 05:16:41;;;;;;;7.88;5.15;;;;;;;19.28;49.71;99935.28;5086046;28;20065;-46
2022/05/24 05:19:08;;;;;;;17.55;10.13;;;;;;;19.28;50.11;99939.78;5094935;28;20395;-46
2022/05/24 05:21:36;;;;;;;5.32;3.80;;;;;;;19.25;50.26;99932.94;5085433;28;20402;-47
2022/05/24 05:24:03;;;;;;;6.38;3.60;;;;;;;19.25;50.72;99937.44;5089862;28;20038;-46
2022/05/24 05:26:30;;;;;;;6.18;4.35;;;;;;;19.23;50.94;99939.44;5085237;28;20487;-44
2022/05/24 05:28:55;;;;;;;8.93;4.38;;;;;;;19.21;51.24;99936.91;5091226;28;20415;-44
2022/05/24 05:31:23;;;;;;;6.13;2.90;;;;;;;19.22;51.41;99932.44;5082314;28;20036;-47
2022/05/24 05:33:50;;;;;;;5.57;3.50;;;;;;;19.22;51.43;99933.25;5085883;28;20028;-47
2022/05/24 05:36:17;;;;;;;4.63;3.67;;;;;;;19.24;51.73;99941.91;5093458;28;20028;-45
2022/05/24 05:38:46;;;;;;;6.32;4.30;;;;;;;19.26;51.72;99949.78;5084972;28;20030;-47
2022/05/24 05:41:17;;;;;;;4.97;3.38;;;;;;;19.26;51.68;99949.78;5084460;28;20028;-45
2022/05/24 05:43:43;;;;;;;7.25;4.70;;;;;;;19.27;51.47;99951.44;5092884;28;20051;-47
2022/05/24 05:46:11;;;;;;;9.20;4.38;;;;;;;19.27;51.89;99956.78;5095540;28;20034;-45
2022/05/24 05:48:38;;;;;;;6.40;4.18;;;;;;;19.27;51.67;99952.25;5093228;28;20024;-45
2022/05/24 05:51:05;;;;;;;11.60;3.90;;;;;;;19.28;51.86;99959.28;5087504;28;20480;-46
2022/05/24 05:53:30;;;;;;;5.10;3.63;;;;;;;19.28;51.53;99959.28;5093621;28;20028;-47
2022/05/24 05:55:56;;;;;;;3.95;3.35;;;;;;;19.28;51.26;99956.59;5091458;28;20067;-47
2022/05/24 05:58:22;;;;;;;6.60;3.30;;;;;;;19.31;51.53;99961.63;5098455;28;20030;-46
2022/05/24 06:00:48;;;;;;;5.13;2.85;;;;;;;19.32;51.22;99957.09;5089645;28;20053;-47
2022/05/24 06:03:14;;;;;;;5.13;3.00;;;;;;;19.32;51.27;99962.44;5098176;28;20047;-47
2022/05/24 06:05:40;;;;;;;5.90;2.72;;;;;;;19.33;51.34;99972.09;5093475;28;20019;-46
2022/05/24 06:08:08;;;;;;;8.95;3.40;;;;;;;19.33;51.31;99977.44;5095391;28;20035;-47
2022/05/24 06:10:34;;;;;;;6.07;3.00;;;;;;;19.32;50.94;99975.78;5092818;28;20023;-47
2022/05/24 06:13:00;;;;;;;3.17;2.70;;;;;;;19.33;51.37;99977.44;5098212;28;20027;-46
2022/05/24 06:15:25;;;;;;;6.05;2.67;;;;;;;19.33;51.32;99980.09;5093871;28;20051;-46
2022/05/24 06:17:52;;;;;;;5.65;3.17;;;;;;;19.33;51.63;99988.97;5091001;28;20024;-46
2022/05/24 06:20:23;;;;;;;7.07;3.22;;;;;;;19.33;51.95;99990.78;5092711;28;20036;-47
2022/05/24 06:22:49;;;;;;;8.05;4.43;;;;;;;19.32;52.16;99997.09;5090127;28;20030;-47
2022/05/24 06:25:16;;;;;;;8.20;3.90;;;;;;;19.30;52.33;99999.09;5101134;28;20085;-49
2022/05/24 06:27:42;;;;;;;9.65;3.72;;;;;;;19.25;52.92;100004.13;5099219;27;20035;-47
2022/05/24 06:30:08;;;;;;;3.83;3.17;;;;;;;19.18;53.60;100001.25;5090113;28;20607;-46
2022/05/24 06:32:33;;;;;;;7.00;3.35;;;;;;;19.12;54.24;100013.41;5090654;27;20028;-46
2022/05/24 06:34:59;;;;;;;6.30;3.05;;;;;;;19.06;54.71;100019.38;5099462;28;20047;-45
2022/05/24 06:37:24;;;;;;;5.80;3.38;;;;;;;19.00;55.28;100020.88;5098069;28;20032;-45
2022/05/24 06:39:50;;;;;;;4.90;3.30;;;;;;;18.97;55.85;100021.19;5086509;28;20032;-45
2022/05/24 06:42:16;;;;;;;5.68;3.70;;;;;;;18.95;56.15;100017.84;5095727;28;20081;-46
2022/05/24 06:44:42;;;;;;;5.22;3.53;;;;;;;18.94;56.63;100025.97;5094538;28;20035;-47
2022/05/24 06:47:07;;;;;;;5.03;3.50;;;;;;;18.94;56.79;100025.97;5088915;28;20038;-45
2022/05/24 06:49:33;;;;;;;5.65;3.17;;;;;;;18.94;57.01;100031.31;5092214;28;20479;-45
2022/05/24 06:51:59;;;;;;;4.55;3.20;;;;;;;18.92;57.37;100033.31;5087755;28;20031;-46
2022/05/24 06:54:25;;;;;;;5.43;3.45;;;;;;;18.89;57.63;100037.97;5094246;28;20020;-45
2022/05/24 06:56:50;;;;;;;5.53;3.65;;;;;;;18.89;57.74;100043.28;5087097;28;20032;-45
2022/05/24 07:02:26;;;;;;;4.70;3.20;;;;;;;18.89;57.91;100047.78;5039950;28;20124;-46
2022/05/24 07:04:55;;;;;;;8.15;3.70;;;;;;;18.86;58.33;100054.25;5090077;28;22687;-45
2022/05/24 07:07:21;;;;;;;5.30;3.53;;;;;;;18.81;58.38;100050.41;5095882;28;20031;-46
2022/05/24 07:09:46;;;;;;;9.93;5.38;;;;;;;18.76;58.59;100044.72;5091858;28;20040;-45
2022/05/24 07:12:11;;;;;;;6.35;4.32;;;;;;;18.73;59.17;100040.53;5090854;28;20449;-44
2022/05/24 07:14:37;;;;;;;6.63;3.60;;;;;;;18.71;59.51;100040.72;5085724;28;20464;-48
2022/05/24 07:17:03;;;;;;;7.15;5.70;;;;;;;18.73;59.90;100048.53;5090435;28;20024;-47
2022/05/24 07:19:29;;;;;;;9.35;4.80;;;;;;;18.75;60.10;100054.53;5089677;28;20024;-48
2022/05/24 07:21:55;;;;;;;6.13;4.53;;;;;;;18.78;60.31;100053.38;5092001;28;20036;-48
2022/05/24 07:24:20;;;;;;;6.22;4.38;;;;;;;18.79;60.34;100061.25;5095704;28;20419;-46
2022/05/24 07:26:45;;;;;;;4.45;3.88;;;;;;;18.81;60.23;100059.25;5094710;28;20024;-46
2022/05/24 07:29:11;;;;;;;5.57;4.07;;;;;;;18.86;60.50;100066.75;5088102;28;20123;-47
2022/05/24 07:31:38;;;;;;;7.75;4.50;;;;;;;18.89;60.43;100066.47;5089031;28;20046;-46
2022/05/24 07:34:04;;;;;;;5.32;4.25;;;;;;;18.93;60.57;100080.28;5085585;28;20055;-47
2022/05/24 07:36:30;;;;;;;6.68;4.15;;;;;;;18.94;60.53;100069.50;5093879;28;20094;-46
2022/05/24 07:38:56;;;;;;;5.15;4.30;;;;;;;18.95;60.82;100070.34;5086640;28;20128;-46
2022/05/24 07:46:50;;;;;;;7.30;4.97;;;;;;;18.91;60.60;100082.28;5090456;28;20043;-46
2022/05/24 07:49:16;;;;;;;7.32;5.60;;;;;;;18.87;60.91;100082.59;5095606;28;20040;-46
2022/05/24 07:51:41;;;;;;;7.20;4.40;;;;;;;18.88;61.28;100081.59;5086408;28;20028;-48
2022/05/24 07:54:07;;;;;;;6.22;4.78;;;;;;;18.91;61.11;100079.59;5080560;28;20377;-46
2022/05/24 07:56:33;;;;;;;6.22;4.57;;;;;;;18.95;61.30;100087.16;5085510;28;20066;-47
2022/05/24 07:58:58;;;;;;;5.35;4.10;;;;;;;18.97;61.43;100087.00;5085560;28;20027;-46
2022/05/24 08:01:24;;;;;;;5.70;4.70;;;;;;;18.99;61.50;100082.34;5092186;28;20039;-45
2022/05/24 08:03:50;;;;;;;8.20;4.82;;;;;;;19.00;61.34;100078.66;5090769;28;20111;-46
2022/05/24 08:06:17;;;;;;;11.25;4.72;;;;;;;19.00;61.74;100087.53;5092369;28;20066;-46
2022/05/24 08:08:43;;;;;;;5.93;4.03;;;;;;;19.06;61.68;100098.56;5086762;28;20024;-43
2022/05/24 08:11:09;;;;;;;6.15;4.05;;;;;;;19.08;61.32;100107.19;5093510;28;20024;-48
2022/05/24 08:13:36;;;;;;;8.35;4.28;;;;;;;19.04;60.99;100107.53;5087990;28;20530;-43
2022/05/24 08:16:02;;;;;;;6.35;4.93;;;;;;;19.03;61.05;100121.00;5091304;28;20150;-42
2022/05/24 08:18:28;;;;;;;5.63;3.92;;;;;;;19.02;61.20;100114.00;5089955;28;20604;-43
2022/05/24 08:20:55;;;;;;;6.07;4.53;;;;;;;19.01;61.12;100118.53;5087583;28;20537;-43
2022/05/24 08:23:23;;;;;;;5.10;4.43;;;;;;;18.99;60.73;100125.84;5089401;28;20653;-43
2022/05/24 08:25:48;;;;;;;7.28;4.57;;;;;;;18.96;61.13;100125.31;5092231;28;20028;-46
2022/05/24 08:28:14;;;;;;;6.55;4.22;;;;;;;18.95;61.04;100123.66;5087177;28;20036;-44
2022/05/24 08:30:40;;;;;;;5.28;4.63;;;;;;;18.94;60.75;100129.94;5088066;28;20054;-45
2022/05/24 08:33:06;;;;;;;6.65;4.97;;;;;;;18.86;61.07;100130.72;5090535;28;20081;-43
2022/05/24 08:35:34;;;;;;;6.13;4.78;;;;;;;18.80;60.95;100132.22;5091151;28;20051;-45
2022/05/24 08:38:00;;;;;;;7.43;5.10;;;;;;;18.77;60.90;100126.34;5085484;28;20020;-45
2022/05/24 08:40:26;;;;;;;5.78;4.50;;;;;;;18.77;60.90;100129.84;5087004;28;20107;-43
2022/05/24 08:43:10;;;;;;;7.63;5.35;;;;;;;18.79;60.77;100138.53;5091940;28;20151;-43
2022/05/24 08:48:58;;;;;;;6.32;5.55;;;;;;;18.85;60.50;100145.88;5081881;28;20031;-43
2022/05/24 08:51:39;;;;;;;7.65;4.85;;;;;;;18.88;60.29;100145.56;5085908;28;20093;-46
2022/05/24 08:54:10;;;;;;;6.28;4.70;;;;;;;18.93;60.22;100153.09;5086638;28;20111;-44
2022/05/24 08:56:58;;;;;;;5.65;4.20;;;;;;;19.00;60.19;100145.31;5089581;28;20415;-47
2022/05/24 08:59:42;;;;;;;6.55;4.30;;;;;;;19.06;59.86;100152.69;5092339;28;20042;-43
2022/05/24 09:02:08;;;;;;;5.30;4.32;;;;;;;19.12;59.97;100156.56;5094727;28;20035;-47
2022/05/24 09:04:33;;;;;;;6.32;3.72;;;;;;;19.21;59.85;100166.25;5086962;28;20032;-44
2022/05/24 09:07:08;;;;;;;4.40;3.60;;;;;;;19.24;58.93;100155.28;5087926;28;20028;-44
2022/05/24 09:10:04;;;;;;;6.30;3.42;;;;;;;19.22;58.33;100157.25;5081609;28;20019;-48
2022/05/24 09:12:54;;;;;;;7.68;3.55;;;;;;;19.21;58.42;100163.59;5088889;28;20047;-44
2022/05/24 09:15:25;;;;;;;;;;;;;;;19.20;58.54;100169.94;5089134;28;20028;-43
2022/05/24 09:18:20;;;;;;;5.90;3.50;;;;;;;19.21;58.68;100170.78;5088058;28;19918;-46
2022/05/24 09:20:45;;;;;;;4.22;3.63;;;;;;;19.22;58.62;100164.44;5091705;28;20402;-43
2022/05/24 09:23:34;;;;;;;4.35;3.28;;;;;;;19.30;58.72;100172.47;5089674;28;20035;-44
2022/05/24 09:26:06;;;;;;;4.70;3.60;;;;;;;19.39;58.75;100182.19;5081390;28;20118;-44
2022/05/24 09:29:11;;;;;;;4.93;2.95;;;;;;;19.47;58.03;100176.06;5085205;28;20032;-43
2022/05/24 09:31:48;;;;;;;3.92;3.28;;;;;;;19.48;57.53;100178.56;5045006;28;20044;-47
2022/05/24 09:34:19;;;;;;;4.85;3.70;;;;;;;19.53;57.66;100186.06;5090733;28;20124;-44
2022/05/24 09:37:23;;;;;;;14.30;10.10;;;;;;;19.57;57.97;100190.09;5090964;28;20012;-44
2022/05/24 09:40:07;;;;;;;4.65;3.20;;;;;;;19.67;57.66;100187.31;5083165;28;20091;-47
2022/05/24 09:42:36;;;;;;;5.10;3.03;;;;;;;19.80;56.95;100190.34;5086282;28;20032;-43
2022/05/24 09:45:09;;;;;;;4.10;2.90;;;;;;;19.87;56.47;100189.72;5088051;28;20918;-47
2022/05/24 09:47:43;;;;;;;5.38;2.90;;;;;;;19.80;56.08;100198.34;5090738;28;20115;-43
2022/05/24 09:50:14;;;;;;;5.55;2.95;;;;;;;19.75;56.18;100207.84;5088632;28;20487;-44
2022/05/24 09:52:41;;;;;;;4.88;2.92;;;;;;;19.69;56.08;100206.66;5083850;28;20025;-46
2022/05/24 09:55:06;;;;;;;2.78;2.30;;;;;;;19.63;56.60;100207.28;5082655;28;20028;-46
2022/05/24 09:57:33;;;;;;;3.70;2.38;;;;;;;19.62;56.37;100216.28;5089911;28;20103;-46
2022/05/24 10:00:20;;;;;;;4.32;2.30;;;;;;;19.61;55.97;100236.81;5084645;28;20020;-43
2022/05/24 10:02:46;;;;;;;4.38;2.10;;;;;;;19.59;55.94;100220.13;5087284;28;20069;-43
2022/05/24 10:05:25;;;;;;;2.75;2.10;;;;;;;19.59;55.74;100221.94;5087391;28;20099;-43
2022/05/24 10:08:00;;;;;;;3.03;2.30;;;;;;;19.59;55.61;100214.78;5082815;28;20024;-47
2022/05/24 10:10:37;;;;;;;3.35;2.35;;;;;;;19.56;55.13;100225.78;5098317;28;20483;-43
2022/05/24 10:13:34;;;;;;;5.40;2.20;;;;;;;19.56;55.12;100223.13;5087026;28;20024;-43
2022/05/24 10:16:30;;;;;;;2.90;2.47;;;;;;;19.57;54.91;100238.13;5068458;28;20468;-43
2022/05/24 10:19:33;;;;;;;4.70;2.25;;;;;;;19.54;54.40;100230.44;5089086;28;20100;-43
2022/05/24 10:22:04;;;;;;;3.00;1.90;;;;;;;19.59;54.61;100230.81;5087803;28;20507;-43
2022/05/24 10:24:48;;;;;;;2.83;2.00;;;;;;;19.67;54.32;100240.69;5084118;28;20054;-43
2022/05/24 10:27:25;;;;;;;3.13;2.25;;;;;;;19.76;53.97;100245.03;5094218;28;20024;-43
2022/05/24 10:30:52;;;;;;;2.70;2.13;;;;;;;19.88;53.80;100250.97;5085081;28;20020;-43
2022/05/24 10:39:38;;;;;;;2.85;1.77;;;;;;;20.06;52.81;100237.50;5090534;28;20451;-43
2022/05/24 10:42:03;;;;;;;1.92;1.65;;;;;;;20.09;52.68;100239.84;5096454;28;20035;-52
2022/05/24 10:44:48;;;;;;;2.65;1.90;;;;;;;20.14;51.86;100246.53;5092074;28;20020;-43
2022/05/24 10:47:24;;;;;;;2.80;1.65;;;;;;;20.21;51.97;100239.53;5087526;28;20043;-49
2022/05/24 10:49:56;;;;;;;3.83;1.95;;;;;;;20.27;51.77;100241.56;5093834;28;20437;-44
2022/05/24 10:52:54;;;;;;;2.80;1.50;;;;;;;20.37;51.78;100239.56;5090467;28;20036;-48
2022/05/24 10:55:44;;;;;;;3.85;1.45;;;;;;;20.49;51.21;100261.44;5072019;28;20111;-47
2022/05/24 10:58:11;;;;;;;;;;;;;;;20.54;51.10;100252.94;5094284;28;20099;-44
2022/05/24 11:00:44;;;;;;;1.40;1.30;;;;;;;20.59;50.74;100265.78;5093143;28;20437;-44
2022/05/24 11:03:12;;;;;;;5.05;1.38;;;;;;;20.62;49.74;100282.34;5092903;28;20028;-43
2022/05/24 11:05:57;;;;;;;1.23;1.10;;;;;;;20.62;49.97;100285.03;5095771;28;20524;-43
2022/05/24 11:08:47;;;;;;;1.92;1.30;;;;;;;20.64;49.64;100272.34;5091833;28;20069;-45
2022/05/24 11:11:32;;;;;;;2.53;1.30;;;;;;;20.68;49.29;100276.31;5095260;28;20067;-44
2022/05/24 11:14:10;;;;;;;1.75;1.10;;;;;;;20.76;49.28;100264.00;5089333;28;20609;-43
2022/05/24 11:16:40;;;;;;;1.33;1.00;;;;;;;20.85;48.82;100273.69;5092647;28;20035;-43
2022/05/24 11:19:14;;;;;;;1.73;1.35;;;;;;;20.92;48.16;100258.66;5089681;28;20027;-44
2022/05/24 11:21:53;;;;;;;2.75;1.10;;;;;;;20.98;48.02;100259.81;5089196;28;20043;-46
2022/05/24 11:24:37;;;;;;;6.07;2.03;;;;;;;21.08;48.31;100262.31;5090866;28;20031;-43
2022/05/24 11:27:05;;;;;;;2.08;1.40;;;;;;;21.21;47.53;100259.09;5089194;28;20039;-44
2022/05/24 11:29:43;;;;;;;1.75;1.20;;;;;;;21.32;47.66;100254.22;5097208;28;20028;-43
2022/05/24 11:32:11;;;;;;;3.70;1.30;;;;;;;21.41;46.90;100263.06;5091329;28;20039;-43
2022/05/24 11:34:54;;;;;;;2.65;1.17;;;;;;;21.37;46.63;100255.56;5094820;28;20371;-44
2022/05/24 11:37:27;;;;;;;1.55;1.10;;;;;;;21.33;46.48;100276.47;5090247;28;20378;-43
2022/05/24 11:39:53;;;;;;;1.73;1.23;;;;;;;21.30;46.63;100279.50;5088585;28;20077;-44
2022/05/24 11:42:24;;;;;;;1.33;1.10;;;;;;;21.31;46.49;100287.34;5089153;28;20639;-43
2022/05/24 11:44:54;;;;;;;1.75;1.40;;;;;;;21.33;46.17;100281.81;5090725;28;20040;-44
2022/05/24 11:47:37;;;;;;;1.63;1.23;;;;;;;21.34;46.31;100286.16;5090242;28;20051;-43
2022/05/24 11:50:09;;;;;;;2.55;1.30;;;;;;;21.32;45.89;100289.03;5087105;28;20387;-43
2022/05/24 11:53:02;;;;;;;2.42;1.35;;;;;;;21.34;46.07;100291.50;5089700;28;20039;-43
2022/05/24 11:55:40;;;;;;;5.90;1.63;;;;;;;21.39;45.92;100289.16;5088775;28;20391;-43
2022/05/24 11:58:20;;;;;;;1.77;1.20;;;;;;;21.43;46.19;100285.16;5088552;28;20024;-43
2022/05/24 12:01:05;;;;;;;1.25;1.15;;;;;;;21.51;46.11;100297.69;5089868;28;20047;-47
2022/05/24 12:09:20;;;;;;;1.95;1.35;;;;;;;21.80;45.79;100307.00;5084691;28;20105;-47
2022/05/24 12:11:46;;;;;;;2.25;1.13;;;;;;;21.81;45.74;100305.97;5077167;28;20432;-47
2022/05/24 12:14:25;;;;;;;1.20;1.10;;;;;;;21.85;45.78;100295.75;5086173;28;20666;-47